createdAt,value
2022-09-25T00:01:05.212Z,15.60
2022-09-25T00:03:32.709Z,15.60
2022-09-25T00:06:09.198Z,15.60
2022-09-25T00:08:36.777Z,15.60
2022-09-25T00:11:25.373Z,15.60
2022-09-25T00:13:52.897Z,15.50
2022-09-25T00:16:23.837Z,15.50
2022-09-25T00:19:10.345Z,15.50
2022-09-25T00:21:38.610Z,15.40
2022-09-25T00:24:08.833Z,15.40
2022-09-25T00:26:38.992Z,15.40
2022-09-25T00:29:07.970Z,15.40
2022-09-25T00:31:35.273Z,15.40
2022-09-25T00:34:04.973Z,15.30
2022-09-25T00:36:33.047Z,15.30
2022-09-25T00:39:00.401Z,15.30
2022-09-25T00:41:32.396Z,15.30
2022-09-25T00:44:01.794Z,15.20
2022-09-25T00:46:37.189Z,15.20
2022-09-25T00:49:20.575Z,15.20
2022-09-25T00:51:57.712Z,15.20
2022-09-25T00:54:39.039Z,15.20
2022-09-25T00:57:09.256Z,15.10
2022-09-25T00:59:45.184Z,15.10
2022-09-25T01:02:14.647Z,15.10
2022-09-25T01:04:46.250Z,15.10
2022-09-25T01:07:14.366Z,15.00
2022-09-25T01:09:41.858Z,15.00
2022-09-25T01:12:09.570Z,14.90
2022-09-25T01:14:37.518Z,14.90
2022-09-25T01:17:30.442Z,14.90
2022-09-25T01:20:33.067Z,14.80
2022-09-25T01:23:30.477Z,14.80
2022-09-25T01:26:35.250Z,14.80
2022-09-25T01:29:10.588Z,14.70
2022-09-25T01:32:14.159Z,14.70
2022-09-25T01:35:08.271Z,14.70
2022-09-25T01:37:42.212Z,14.60
2022-09-25T01:40:22.112Z,14.60
2022-09-25T01:42:55.614Z,14.60
2022-09-25T01:45:33.274Z,14.50
2022-09-25T01:48:06.471Z,14.50
2022-09-25T01:50:45.036Z,14.50
2022-09-25T01:53:16.732Z,14.50
2022-09-25T01:55:48.885Z,14.50
2022-09-25T01:58:34.714Z,14.50
2022-09-25T02:01:07.706Z,14.40
2022-09-25T02:03:44.158Z,14.40
2022-09-25T02:06:17.064Z,14.40
2022-09-25T02:08:57.812Z,14.40
2022-09-25T02:11:31.443Z,14.40
2022-09-25T02:14:05.621Z,14.40
2022-09-25T02:16:38.454Z,14.40
2022-09-25T02:19:24.931Z,14.40
2022-09-25T02:22:04.596Z,14.40
2022-09-25T02:24:32.369Z,14.30
2022-09-25T02:27:00.027Z,14.30
2022-09-25T02:29:27.886Z,14.30
2022-09-25T02:32:19.569Z,14.30
2022-09-25T02:34:47.840Z,14.30
2022-09-25T02:37:17.278Z,14.20
2022-09-25T02:39:54.621Z,14.20
2022-09-25T02:42:35.142Z,14.20
2022-09-25T02:45:14.701Z,14.20
2022-09-25T02:47:52.596Z,14.20
2022-09-25T02:50:22.516Z,14.20
2022-09-25T02:53:22.120Z,14.20
2022-09-25T02:56:25.490Z,14.20
2022-09-25T02:58:59.746Z,14.10
2022-09-25T03:01:32.152Z,14.10
2022-09-25T03:04:01.123Z,14.10
2022-09-25T03:06:30.376Z,14.10
2022-09-25T03:09:01.063Z,14.10
2022-09-25T03:11:28.438Z,14.10
2022-09-25T03:14:00.601Z,14.10
2022-09-25T03:16:59.283Z,14.10
2022-09-25T03:19:29.024Z,14.10
2022-09-25T03:21:56.502Z,14.10
2022-09-25T03:24:23.746Z,14.10
2022-09-25T03:26:51.627Z,14.10
2022-09-25T03:29:18.880Z,14.00
2022-09-25T03:31:46.219Z,14.00
2022-09-25T03:34:15.031Z,14.00
2022-09-25T03:36:43.050Z,14.00
2022-09-25T03:39:15.028Z,14.00
2022-09-25T03:41:43.323Z,13.90
2022-09-25T03:44:10.663Z,14.00
2022-09-25T03:46:38.032Z,14.00
2022-09-25T03:49:05.697Z,13.90
2022-09-25T03:51:33.799Z,13.90
2022-09-25T03:54:01.324Z,13.90
2022-09-25T03:56:29.942Z,13.90
2022-09-25T03:58:57.777Z,13.90
2022-09-25T04:01:26.120Z,13.90
2022-09-25T04:03:53.731Z,13.80
2022-09-25T04:06:25.598Z,13.80
2022-09-25T04:08:54.044Z,13.80
2022-09-25T04:11:24.085Z,13.80
2022-09-25T04:13:52.127Z,13.80
2022-09-25T04:16:21.469Z,13.70
2022-09-25T04:18:49.972Z,13.70
2022-09-25T04:21:17.253Z,13.70
2022-09-25T04:24:05.001Z,13.70
2022-09-25T04:26:32.692Z,13.70
2022-09-25T04:29:01.537Z,13.60
2022-09-25T04:31:30.159Z,13.60
2022-09-25T04:33:57.387Z,13.60
2022-09-25T04:36:25.041Z,13.60
2022-09-25T04:38:52.912Z,13.50
2022-09-25T04:41:20.292Z,13.50
2022-09-25T04:43:47.785Z,13.50
2022-09-25T04:46:21.125Z,13.50
2022-09-25T04:48:49.534Z,13.50
2022-09-25T04:51:20.020Z,13.40
2022-09-25T04:53:48.570Z,13.40
2022-09-25T04:56:16.761Z,13.40
2022-09-25T04:58:46.779Z,13.40
2022-09-25T05:01:14.026Z,13.40
2022-09-25T05:03:41.232Z,13.40
2022-09-25T05:06:09.949Z,13.30
2022-09-25T05:08:37.033Z,13.30
2022-09-25T05:11:04.130Z,13.30
2022-09-25T05:13:31.392Z,13.30
2022-09-25T05:15:58.378Z,13.30
2022-09-25T05:18:25.984Z,13.30
2022-09-25T05:20:54.455Z,13.30
2022-09-25T05:23:24.066Z,13.20
2022-09-25T05:25:58.082Z,13.20
2022-09-25T05:28:25.254Z,13.20
2022-09-25T05:30:52.374Z,13.20
2022-09-25T05:33:19.742Z,13.20
2022-09-25T05:35:48.624Z,13.20
2022-09-25T05:38:16.158Z,13.20
2022-09-25T05:40:43.419Z,13.20
2022-09-25T05:43:12.161Z,13.10
2022-09-25T05:45:39.298Z,13.20
2022-09-25T05:48:08.553Z,13.20
2022-09-25T05:50:35.696Z,13.20
2022-09-25T05:53:04.680Z,13.20
2022-09-25T05:55:31.952Z,13.20
2022-09-25T05:58:05.227Z,13.20
2022-09-25T06:00:35.234Z,13.30
2022-09-25T06:03:02.510Z,13.30
2022-09-25T06:05:30.142Z,13.30
2022-09-25T06:07:57.205Z,13.30
2022-09-25T06:10:26.908Z,13.40
2022-09-25T06:13:02.666Z,13.40
2022-09-25T06:15:35.945Z,13.50
2022-09-25T06:18:04.187Z,13.50
2022-09-25T06:20:31.201Z,13.60
2022-09-25T06:22:59.428Z,13.70
2022-09-25T06:25:29.126Z,13.90
2022-09-25T06:27:57.835Z,14.10
2022-09-25T06:30:27.647Z,14.30
2022-09-25T06:32:59.600Z,14.60
2022-09-25T06:35:28.854Z,15.00
2022-09-25T06:38:00.984Z,15.40
2022-09-25T06:40:32.300Z,15.70
2022-09-25T06:43:01.537Z,16.00
2022-09-25T06:45:33.945Z,16.30
2022-09-25T06:48:05.839Z,16.70
2022-09-25T06:50:44.535Z,17.00
2022-09-25T06:53:12.889Z,17.30
2022-09-25T06:55:41.141Z,17.50
2022-09-25T06:58:14.719Z,17.70
2022-09-25T07:00:45.680Z,17.90
2022-09-25T07:03:31.376Z,18.20
2022-09-25T07:06:01.057Z,18.60
2022-09-25T07:08:28.201Z,19.10
2022-09-25T07:10:57.627Z,19.60
2022-09-25T07:13:29.217Z,20.10
2022-09-25T07:15:58.532Z,20.50
2022-09-25T07:18:28.552Z,20.80
2022-09-25T07:21:09.384Z,20.90
2022-09-25T07:23:37.906Z,20.90
2022-09-25T07:26:14.678Z,20.90
2022-09-25T07:28:43.390Z,20.70
2022-09-25T07:31:13.729Z,20.60
2022-09-25T07:33:41.042Z,20.50
2022-09-25T07:36:09.719Z,20.40
2022-09-25T07:38:37.169Z,20.20
2022-09-25T07:41:10.597Z,20.10
2022-09-25T07:43:38.845Z,20.00
2022-09-25T07:46:06.855Z,20.00
2022-09-25T07:48:34.106Z,19.90
2022-09-25T07:51:02.436Z,19.90
2022-09-25T07:53:29.804Z,19.90
2022-09-25T07:56:03.572Z,19.90
2022-09-25T07:58:35.670Z,19.90
2022-09-25T08:01:04.941Z,19.90
2022-09-25T08:03:33.071Z,20.00
2022-09-25T08:06:02.021Z,20.00
2022-09-25T08:08:29.925Z,20.00
2022-09-25T08:11:09.321Z,20.10
2022-09-25T08:13:39.571Z,20.10
2022-09-25T08:16:24.070Z,20.10
2022-09-25T08:18:53.272Z,20.20
2022-09-25T08:21:24.538Z,20.20
2022-09-25T08:23:54.846Z,20.20
2022-09-25T08:26:23.265Z,20.20
2022-09-25T08:28:51.111Z,20.20
2022-09-25T08:31:24.695Z,20.20
2022-09-25T08:33:51.903Z,20.20
2022-09-25T08:36:20.845Z,20.20
2022-09-25T08:38:49.570Z,20.20
2022-09-25T08:41:28.256Z,20.20
2022-09-25T08:44:05.322Z,20.20
2022-09-25T08:47:02.577Z,20.30
2022-09-25T08:49:36.981Z,20.40
2022-09-25T08:52:08.472Z,20.50
2022-09-25T08:54:36.662Z,20.60
2022-09-25T08:57:35.142Z,20.80
2022-09-25T09:00:06.713Z,20.90
2022-09-25T09:02:42.722Z,21.20
2022-09-25T09:05:22.076Z,21.40
2022-09-25T09:08:03.703Z,21.60
2022-09-25T09:10:42.712Z,21.80
2022-09-25T09:13:33.274Z,22.10
2022-09-25T09:16:07.274Z,22.30
2022-09-25T09:18:40.006Z,22.50
2022-09-25T09:21:19.220Z,22.60
2022-09-25T09:24:08.126Z,22.90
2022-09-25T09:27:18.289Z,23.20
2022-09-25T09:30:10.523Z,23.40
2022-09-25T09:33:05.610Z,23.60
2022-09-25T09:36:01.117Z,23.90
2022-09-25T09:38:51.177Z,24.20
2022-09-25T09:41:36.273Z,24.40
2022-09-25T09:44:23.391Z,24.80
2022-09-25T09:46:57.158Z,25.10
2022-09-25T09:50:10.070Z,25.30
2022-09-25T09:52:42.564Z,25.50
2022-09-25T09:55:41.968Z,25.50
2022-09-25T09:58:43.286Z,25.60
2022-09-25T10:01:36.555Z,25.50
2022-09-25T10:04:11.097Z,25.50
2022-09-25T10:06:41.634Z,25.60
2022-09-25T10:09:14.770Z,25.60
2022-09-25T10:11:44.188Z,25.70
2022-09-25T10:14:20.385Z,25.80
2022-09-25T10:16:53.177Z,25.70
2022-09-25T10:19:23.820Z,25.70
2022-09-25T10:22:28.353Z,25.60
2022-09-25T10:25:05.452Z,25.60
2022-09-25T10:27:36.939Z,25.60
2022-09-25T10:30:11.294Z,25.50
2022-09-25T10:33:00.000Z,25.60
2022-09-25T10:35:39.297Z,25.50
2022-09-25T10:38:35.597Z,25.50
2022-09-25T10:41:15.582Z,25.40
2022-09-25T10:44:01.158Z,25.30
2022-09-25T10:46:51.904Z,25.20
2022-09-25T10:49:44.378Z,25.20
2022-09-25T10:52:19.912Z,25.20
2022-09-25T10:54:48.149Z,25.20
2022-09-25T10:57:38.448Z,25.20
2022-09-25T11:00:25.105Z,25.20
2022-09-25T11:03:06.075Z,25.10
2022-09-25T11:05:37.820Z,25.00
2022-09-25T11:08:07.642Z,24.90
2022-09-25T11:10:37.655Z,24.90
2022-09-25T11:13:26.233Z,24.80
2022-09-25T11:15:58.965Z,24.80
2022-09-25T11:18:45.370Z,24.70
2022-09-25T11:21:33.693Z,24.70
2022-09-25T11:24:03.579Z,24.70
2022-09-25T11:26:47.225Z,24.70
2022-09-25T11:29:20.594Z,24.80
2022-09-25T11:31:58.691Z,24.90
2022-09-25T11:35:00.416Z,25.00
2022-09-25T11:38:02.270Z,25.10
2022-09-25T11:41:18.574Z,25.30
2022-09-25T11:43:58.066Z,25.40
2022-09-25T11:47:04.915Z,25.50
2022-09-25T11:49:35.916Z,25.60
2022-09-25T11:52:16.578Z,25.60
2022-09-25T11:55:11.104Z,25.70
2022-09-25T11:57:49.716Z,25.70
2022-09-25T12:00:26.523Z,25.80
2022-09-25T12:02:56.637Z,25.80
2022-09-25T12:05:51.082Z,25.80
2022-09-25T12:08:37.076Z,25.80
2022-09-25T12:11:32.089Z,25.70
2022-09-25T12:14:14.179Z,25.60
2022-09-25T12:17:12.946Z,25.50
2022-09-25T12:20:11.586Z,25.50
2022-09-25T12:23:07.456Z,25.40
2022-09-25T12:25:45.710Z,25.40
2022-09-25T12:28:34.087Z,25.30
2022-09-25T12:31:10.689Z,25.30
2022-09-25T12:33:57.846Z,25.20
2022-09-25T12:36:36.710Z,25.20
2022-09-25T12:39:24.947Z,25.10
2022-09-25T12:42:18.886Z,25.10
2022-09-25T12:45:23.394Z,25.00
2022-09-25T12:48:05.753Z,25.00
2022-09-25T12:50:49.545Z,24.90
2022-09-25T12:53:20.088Z,24.80
2022-09-25T12:55:59.854Z,24.80
2022-09-25T12:58:57.597Z,24.70
2022-09-25T13:01:47.592Z,24.60
2022-09-25T13:04:20.591Z,24.60
2022-09-25T13:06:58.330Z,24.60
2022-09-25T13:09:25.521Z,24.50
2022-09-25T13:12:00.890Z,24.50
2022-09-25T13:14:27.845Z,24.50
2022-09-25T13:16:54.967Z,24.40
2022-09-25T13:19:30.745Z,24.40
2022-09-25T13:22:22.290Z,24.40
2022-09-25T13:24:56.546Z,24.40
2022-09-25T13:27:25.344Z,24.30
2022-09-25T13:30:00.314Z,24.30
2022-09-25T13:32:34.578Z,24.30
2022-09-25T13:35:07.176Z,24.20
2022-09-25T13:37:38.005Z,24.20
2022-09-25T13:40:36.619Z,24.20
2022-09-25T13:43:27.987Z,24.20
2022-09-25T13:46:19.013Z,24.20
2022-09-25T13:48:46.398Z,24.10
2022-09-25T13:51:23.045Z,24.20
2022-09-25T13:54:04.740Z,24.10
2022-09-25T13:56:40.695Z,24.10
2022-09-25T13:59:15.159Z,24.10
2022-09-25T14:01:54.147Z,24.10
2022-09-25T14:04:36.205Z,24.00
2022-09-25T14:07:20.185Z,24.00
2022-09-25T14:09:55.168Z,23.90
2022-09-25T14:12:33.339Z,23.80
2022-09-25T14:15:28.970Z,23.70
2022-09-25T14:17:59.288Z,23.70
2022-09-25T14:20:34.697Z,23.60
2022-09-25T14:23:07.144Z,23.50
2022-09-25T14:25:38.417Z,23.50
2022-09-25T14:28:28.261Z,23.40
2022-09-25T14:31:00.183Z,23.30
2022-09-25T14:33:32.138Z,23.30
2022-09-25T14:36:24.836Z,23.20
2022-09-25T14:39:21.795Z,23.20
2022-09-25T14:42:18.822Z,23.10
2022-09-25T14:44:57.272Z,23.00
2022-09-25T14:47:30.884Z,23.00
2022-09-25T14:49:59.376Z,22.90
2022-09-25T14:52:32.209Z,22.90
2022-09-25T14:55:00.678Z,22.80
2022-09-25T14:57:32.848Z,22.80
2022-09-25T15:00:04.222Z,22.70
2022-09-25T15:02:37.578Z,22.80
2022-09-25T15:05:24.248Z,22.70
2022-09-25T15:07:51.459Z,22.70
2022-09-25T15:10:33.835Z,22.60
2022-09-25T15:13:13.111Z,22.60
2022-09-25T15:15:40.771Z,22.60
2022-09-25T15:18:14.055Z,22.60
2022-09-25T15:20:48.531Z,22.60
2022-09-25T15:23:19.185Z,22.50
2022-09-25T15:25:50.160Z,22.50
2022-09-25T15:28:21.010Z,22.50
2022-09-25T15:31:04.507Z,22.50
2022-09-25T15:33:34.468Z,22.50
2022-09-25T15:36:08.585Z,22.50
2022-09-25T15:38:37.727Z,22.50
2022-09-25T15:41:11.972Z,22.50
2022-09-25T15:43:39.055Z,22.50
2022-09-25T15:46:09.172Z,22.40
2022-09-25T15:48:42.324Z,22.40
2022-09-25T15:51:22.285Z,22.40
2022-09-25T15:53:57.966Z,22.40
2022-09-25T15:56:31.032Z,22.40
2022-09-25T15:59:19.291Z,22.30
2022-09-25T16:02:06.411Z,22.30
2022-09-25T16:04:52.222Z,22.30
2022-09-25T16:07:24.179Z,22.20
2022-09-25T16:09:57.367Z,22.20
2022-09-25T16:12:42.640Z,22.20
2022-09-25T16:15:27.328Z,22.10
2022-09-25T16:18:04.406Z,22.10
2022-09-25T16:20:42.848Z,22.00
2022-09-25T16:23:28.222Z,22.00
2022-09-25T16:25:56.183Z,21.90
2022-09-25T16:28:30.326Z,21.90
2022-09-25T16:31:08.036Z,21.80
2022-09-25T16:33:40.988Z,21.70
2022-09-25T16:36:20.406Z,21.70
2022-09-25T16:39:37.513Z,21.60
2022-09-25T16:42:27.923Z,21.60
2022-09-25T16:45:16.880Z,21.40
2022-09-25T16:47:49.294Z,21.40
2022-09-25T16:50:28.311Z,21.30
2022-09-25T16:52:55.945Z,21.30
2022-09-25T16:55:29.270Z,21.20
2022-09-25T16:57:59.272Z,21.10
2022-09-25T17:00:28.582Z,21.10
2022-09-25T17:02:56.513Z,21.10
2022-09-25T17:05:26.949Z,21.00
2022-09-25T17:07:56.944Z,21.00
2022-09-25T17:10:28.964Z,20.90
2022-09-25T17:12:59.092Z,20.90
2022-09-25T17:15:33.136Z,20.80
2022-09-25T17:18:02.281Z,20.80
2022-09-25T17:20:34.231Z,20.70
2022-09-25T17:23:02.085Z,20.70
2022-09-25T17:26:00.594Z,20.70
2022-09-25T17:28:28.496Z,20.60
2022-09-25T17:30:56.298Z,20.50
2022-09-25T17:33:23.731Z,20.50
2022-09-25T17:35:55.918Z,20.50
2022-09-25T17:38:23.009Z,20.40
2022-09-25T17:40:52.568Z,20.40
2022-09-25T17:43:19.983Z,20.40
2022-09-25T17:45:58.034Z,20.40
2022-09-25T17:48:30.770Z,20.30
2022-09-25T17:51:04.039Z,20.30
2022-09-25T17:53:33.812Z,20.30
2022-09-25T17:56:02.772Z,20.20
2022-09-25T17:58:31.114Z,20.20
2022-09-25T18:01:00.173Z,20.20
2022-09-25T18:03:28.532Z,20.20
2022-09-25T18:05:58.041Z,20.10
2022-09-25T18:08:25.180Z,20.10
2022-09-25T18:10:54.789Z,20.10
2022-09-25T18:13:22.520Z,20.10
2022-09-25T18:15:54.740Z,20.10
2022-09-25T18:18:23.061Z,20.00
2022-09-25T18:21:09.708Z,20.00
2022-09-25T18:23:38.845Z,20.00
2022-09-25T18:26:09.141Z,19.90
2022-09-25T18:28:36.144Z,19.90
2022-09-25T18:31:04.253Z,19.90
2022-09-25T18:33:31.492Z,19.90
2022-09-25T18:35:58.611Z,19.90
2022-09-25T18:38:25.847Z,19.80
2022-09-25T18:40:52.901Z,19.80
2022-09-25T18:43:21.322Z,19.80
2022-09-25T18:45:52.475Z,19.80
2022-09-25T18:48:19.746Z,19.70
2022-09-25T18:50:48.114Z,19.70
2022-09-25T18:53:15.700Z,19.70
2022-09-25T18:55:43.766Z,19.60
2022-09-25T18:58:11.989Z,19.60
2022-09-25T19:00:40.960Z,19.60
2022-09-25T19:03:08.889Z,19.50
2022-09-25T19:05:37.189Z,19.50
2022-09-25T19:08:05.303Z,19.50
2022-09-25T19:10:35.562Z,19.40
2022-09-25T19:13:04.321Z,19.40
2022-09-25T19:15:31.412Z,19.30
2022-09-25T19:17:59.827Z,19.30
2022-09-25T19:20:27.014Z,19.30
2022-09-25T19:22:54.099Z,19.20
2022-09-25T19:25:22.869Z,19.20
2022-09-25T19:27:50.150Z,19.10
2022-09-25T19:30:17.436Z,19.10
2022-09-25T19:32:45.188Z,19.00
2022-09-25T19:35:13.191Z,19.00
2022-09-25T19:37:42.345Z,18.90
2022-09-25T19:40:29.194Z,18.90
2022-09-25T19:42:58.695Z,18.90
2022-09-25T19:45:26.103Z,18.80
2022-09-25T19:47:53.555Z,18.80
2022-09-25T19:50:21.429Z,18.70
2022-09-25T19:52:51.030Z,18.70
2022-09-25T19:55:19.315Z,18.60
2022-09-25T19:57:47.241Z,18.60
2022-09-25T20:00:18.740Z,18.60
2022-09-25T20:02:48.707Z,18.60
2022-09-25T20:05:18.366Z,18.50
2022-09-25T20:07:46.545Z,18.50
2022-09-25T20:10:15.441Z,18.50
2022-09-25T20:12:42.855Z,18.50
2022-09-25T20:15:10.462Z,18.40
2022-09-25T20:17:37.385Z,18.40
2022-09-25T20:20:05.315Z,18.40
2022-09-25T20:22:32.526Z,18.40
2022-09-25T20:25:00.130Z,18.30
2022-09-25T20:27:27.900Z,18.30
2022-09-25T20:29:56.111Z,18.30
2022-09-25T20:32:23.737Z,18.30
2022-09-25T20:34:51.657Z,18.20
2022-09-25T20:37:18.719Z,18.20
2022-09-25T20:39:45.925Z,18.20
2022-09-25T20:42:13.449Z,18.20
2022-09-25T20:44:40.471Z,18.20
2022-09-25T20:47:08.426Z,18.20
2022-09-25T20:49:36.571Z,18.20
2022-09-25T20:52:04.716Z,18.20
2022-09-25T20:54:32.259Z,18.20
2022-09-25T20:56:59.349Z,18.20
2022-09-25T20:59:27.755Z,18.20
2022-09-25T21:01:55.015Z,18.20
2022-09-25T21:04:23.098Z,18.20
2022-09-25T21:06:50.179Z,18.10
2022-09-25T21:09:24.053Z,18.10
2022-09-25T21:11:52.684Z,18.10
2022-09-25T21:14:27.302Z,18.10
2022-09-25T21:16:59.102Z,18.10
2022-09-25T21:19:28.079Z,18.10
2022-09-25T21:21:55.296Z,18.10
2022-09-25T21:24:23.011Z,18.10
2022-09-25T21:26:50.946Z,18.10
2022-09-25T21:29:20.301Z,18.10
2022-09-25T21:31:50.361Z,18.10
2022-09-25T21:34:18.649Z,18.10
2022-09-25T21:36:46.837Z,18.10
2022-09-25T21:39:14.008Z,18.10
2022-09-25T21:41:41.185Z,18.10
2022-09-25T21:44:13.515Z,18.10
2022-09-25T21:46:41.250Z,18.10
2022-09-25T21:49:08.508Z,18.10
2022-09-25T21:51:39.299Z,18.10
2022-09-25T21:54:08.670Z,18.10
2022-09-25T21:56:36.122Z,18.10
2022-09-25T21:59:08.896Z,18.10
2022-09-25T22:01:38.816Z,18.10
2022-09-25T22:04:07.091Z,18.10
2022-09-25T22:06:39.802Z,18.10
2022-09-25T22:09:18.980Z,18.10
2022-09-25T22:11:47.968Z,18.00
2022-09-25T22:14:16.770Z,18.00
2022-09-25T22:16:47.119Z,18.00
2022-09-25T22:19:19.208Z,18.00
2022-09-25T22:21:49.258Z,17.90
2022-09-25T22:24:17.528Z,17.90
2022-09-25T22:26:47.035Z,17.90
2022-09-25T22:29:15.117Z,17.90
2022-09-25T22:31:43.669Z,17.80
2022-09-25T22:34:23.643Z,17.80
2022-09-25T22:36:57.901Z,17.80
2022-09-25T22:39:27.236Z,17.80
2022-09-25T22:41:55.581Z,17.80
2022-09-25T22:44:23.289Z,17.80
2022-09-25T22:46:50.993Z,17.70
2022-09-25T22:49:18.905Z,17.70
2022-09-25T22:51:46.078Z,17.70
2022-09-25T22:54:14.839Z,17.70
2022-09-25T22:56:43.156Z,17.70
2022-09-25T22:59:18.317Z,17.70
2022-09-25T23:01:52.386Z,17.70
2022-09-25T23:04:22.195Z,17.70
2022-09-25T23:06:50.195Z,17.70
2022-09-25T23:09:19.881Z,17.70
2022-09-25T23:11:47.107Z,17.70
2022-09-25T23:14:20.966Z,17.70
2022-09-25T23:16:50.783Z,17.70
2022-09-25T23:19:18.877Z,17.70
2022-09-25T23:21:46.304Z,17.60
2022-09-25T23:24:17.087Z,17.60
2022-09-25T23:26:46.048Z,17.60
2022-09-25T23:29:19.121Z,17.50
2022-09-25T23:31:47.911Z,17.50
2022-09-25T23:34:15.193Z,17.50
2022-09-25T23:36:42.429Z,17.40
2022-09-25T23:39:10.653Z,17.40
2022-09-25T23:41:39.830Z,17.40
2022-09-25T23:44:09.172Z,17.40
2022-09-25T23:46:39.460Z,17.40
2022-09-25T23:49:07.244Z,17.30
2022-09-25T23:51:34.201Z,17.30
2022-09-25T23:54:02.371Z,17.30
2022-09-25T23:56:32.384Z,17.20
2022-09-25T23:59:03.788Z,17.20
